sensor_id;sensor_type;location;lat;lon;timestamp;P1;durP1;ratioP1;P2;durP2;ratioP2
14817;SDS011;7500;57.698;11.986;2024-02-23T00:00:14;0.70;;;0.70;;
14817;SDS011;7500;57.698;11.986;2024-02-23T00:02:43;0.57;;;0.57;;
14817;SDS011;7500;57.698;11.986;2024-02-23T00:05:09;0.53;;;0.53;;
14817;SDS011;7500;57.698;11.986;2024-02-23T00:07:36;0.60;;;0.60;;
14817;SDS011;7500;57.698;11.986;2024-02-23T00:10:02;0.50;;;0.50;;
14817;SDS011;7500;57.698;11.986;2024-02-23T00:12:30;0.70;;;0.70;;
14817;SDS011;7500;57.698;11.986;2024-02-23T00:14:57;0.70;;;0.53;;
14817;SDS011;7500;57.698;11.986;2024-02-23T00:17:24;0.77;;;0.77;;
14817;SDS011;7500;57.698;11.986;2024-02-23T00:19:50;0.60;;;0.60;;
14817;SDS011;7500;57.698;11.986;2024-02-23T00:22:18;0.40;;;0.40;;
14817;SDS011;7500;57.698;11.986;2024-02-23T00:24:44;0.40;;;0.40;;
14817;SDS011;7500;57.698;11.986;2024-02-23T00:27:11;0.50;;;0.50;;
14817;SDS011;7500;57.698;11.986;2024-02-23T00:29:39;0.43;;;0.40;;
14817;SDS011;7500;57.698;11.986;2024-02-23T00:32:05;0.50;;;0.50;;
14817;SDS011;7500;57.698;11.986;2024-02-23T00:34:32;0.40;;;0.40;;
14817;SDS011;7500;57.698;11.986;2024-02-23T00:36:59;0.73;;;0.60;;
14817;SDS011;7500;57.698;11.986;2024-02-23T00:39:25;0.40;;;0.40;;
14817;SDS011;7500;57.698;11.986;2024-02-23T00:41:52;0.40;;;0.40;;
14817;SDS011;7500;57.698;11.986;2024-02-23T00:44:18;1.33;;;0.27;;
14817;SDS011;7500;57.698;11.986;2024-02-23T00:46:46;0.27;;;0.27;;
14817;SDS011;7500;57.698;11.986;2024-02-23T00:49:13;0.40;;;0.40;;
14817;SDS011;7500;57.698;11.986;2024-02-23T00:51:39;1.13;;;0.23;;
14817;SDS011;7500;57.698;11.986;2024-02-23T00:54:06;0.47;;;0.40;;
14817;SDS011;7500;57.698;11.986;2024-02-23T00:56:33;0.30;;;0.30;;
14817;SDS011;7500;57.698;11.986;2024-02-23T00:58:59;0.63;;;0.40;;
14817;SDS011;7500;57.698;11.986;2024-02-23T01:01:26;0.30;;;0.30;;
14817;SDS011;7500;57.698;11.986;2024-02-23T01:03:55;0.20;;;0.20;;
14817;SDS011;7500;57.698;11.986;2024-02-23T01:06:21;0.20;;;0.20;;
14817;SDS011;7500;57.698;11.986;2024-02-23T01:08:48;1.00;;;0.40;;
14817;SDS011;7500;57.698;11.986;2024-02-23T01:11:15;0.67;;;0.50;;
14817;SDS011;7500;57.698;11.986;2024-02-23T01:13:42;0.30;;;0.30;;
14817;SDS011;7500;57.698;11.986;2024-02-23T01:16:08;1.40;;;0.30;;
14817;SDS011;7500;57.698;11.986;2024-02-23T01:18:35;0.50;;;0.50;;
14817;SDS011;7500;57.698;11.986;2024-02-23T01:21:03;3.20;;;0.50;;
14817;SDS011;7500;57.698;11.986;2024-02-23T01:23:29;0.40;;;0.40;;
14817;SDS011;7500;57.698;11.986;2024-02-23T01:25:56;0.57;;;0.40;;
14817;SDS011;7500;57.698;11.986;2024-02-23T01:28:24;1.47;;;0.77;;
14817;SDS011;7500;57.698;11.986;2024-02-23T01:30:51;0.30;;;0.30;;
14817;SDS011;7500;57.698;11.986;2024-02-23T01:33:17;0.50;;;0.50;;
14817;SDS011;7500;57.698;11.986;2024-02-23T01:35:44;0.50;;;0.50;;
14817;SDS011;7500;57.698;11.986;2024-02-23T01:38:12;0.43;;;0.43;;
14817;SDS011;7500;57.698;11.986;2024-02-23T01:40:44;0.90;;;0.60;;
14817;SDS011;7500;57.698;11.986;2024-02-23T01:43:10;2.57;;;0.60;;
14817;SDS011;7500;57.698;11.986;2024-02-23T01:45:37;0.93;;;0.60;;
14817;SDS011;7500;57.698;11.986;2024-02-23T01:48:04;0.50;;;0.50;;
14817;SDS011;7500;57.698;11.986;2024-02-23T01:50:31;2.57;;;0.80;;
14817;SDS011;7500;57.698;11.986;2024-02-23T01:53:00;1.33;;;0.60;;
14817;SDS011;7500;57.698;11.986;2024-02-23T01:55:28;2.83;;;0.50;;
14817;SDS011;7500;57.698;11.986;2024-02-23T01:57:55;0.63;;;0.53;;
14817;SDS011;7500;57.698;11.986;2024-02-23T02:00:22;0.63;;;0.60;;
14817;SDS011;7500;57.698;11.986;2024-02-23T02:02:48;1.60;;;0.50;;
14817;SDS011;7500;57.698;11.986;2024-02-23T02:05:15;3.70;;;0.33;;
14817;SDS011;7500;57.698;11.986;2024-02-23T02:07:41;0.73;;;0.50;;
14817;SDS011;7500;57.698;11.986;2024-02-23T02:10:09;1.37;;;0.47;;
14817;SDS011;7500;57.698;11.986;2024-02-23T02:12:37;3.00;;;0.40;;
14817;SDS011;7500;57.698;11.986;2024-02-23T02:15:04;1.80;;;0.60;;
14817;SDS011;7500;57.698;11.986;2024-02-23T02:17:31;2.10;;;0.70;;
14817;SDS011;7500;57.698;11.986;2024-02-23T02:19:58;0.53;;;0.47;;
14817;SDS011;7500;57.698;11.986;2024-02-23T02:22:25;0.53;;;0.40;;
14817;SDS011;7500;57.698;11.986;2024-02-23T02:24:52;0.40;;;0.30;;
14817;SDS011;7500;57.698;11.986;2024-02-23T02:27:18;25.57;;;1.17;;
14817;SDS011;7500;57.698;11.986;2024-02-23T02:29:46;0.27;;;0.27;;
14817;SDS011;7500;57.698;11.986;2024-02-23T02:32:13;5.10;;;0.60;;
14817;SDS011;7500;57.698;11.986;2024-02-23T02:34:39;1.20;;;0.50;;
14817;SDS011;7500;57.698;11.986;2024-02-23T02:37:06;2.50;;;0.50;;
14817;SDS011;7500;57.698;11.986;2024-02-23T02:39:33;12.10;;;0.60;;
14817;SDS011;7500;57.698;11.986;2024-02-23T02:41:59;1.17;;;0.47;;
14817;SDS011;7500;57.698;11.986;2024-02-23T02:44:26;2.00;;;0.33;;
14817;SDS011;7500;57.698;11.986;2024-02-23T02:46:56;1.53;;;0.20;;
14817;SDS011;7500;57.698;11.986;2024-02-23T02:49:23;0.30;;;0.30;;
14817;SDS011;7500;57.698;11.986;2024-02-23T02:51:50;0.50;;;0.33;;
14817;SDS011;7500;57.698;11.986;2024-02-23T02:54:16;0.77;;;0.50;;
14817;SDS011;7500;57.698;11.986;2024-02-23T02:56:43;2.37;;;0.50;;
14817;SDS011;7500;57.698;11.986;2024-02-23T02:59:11;2.03;;;0.43;;
14817;SDS011;7500;57.698;11.986;2024-02-23T03:01:37;3.17;;;0.50;;
14817;SDS011;7500;57.698;11.986;2024-02-23T03:04:05;1.00;;;0.40;;
14817;SDS011;7500;57.698;11.986;2024-02-23T03:06:32;0.30;;;0.30;;
14817;SDS011;7500;57.698;11.986;2024-02-23T03:08:59;1.43;;;0.40;;
14817;SDS011;7500;57.698;11.986;2024-02-23T03:11:25;0.53;;;0.37;;
14817;SDS011;7500;57.698;11.986;2024-02-23T03:13:52;0.30;;;0.30;;
14817;SDS011;7500;57.698;11.986;2024-02-23T03:16:20;1.23;;;0.40;;
14817;SDS011;7500;57.698;11.986;2024-02-23T03:18:48;0.57;;;0.40;;
14817;SDS011;7500;57.698;11.986;2024-02-23T03:21:17;0.30;;;0.30;;
14817;SDS011;7500;57.698;11.986;2024-02-23T03:23:43;0.43;;;0.20;;
14817;SDS011;7500;57.698;11.986;2024-02-23T03:26:10;0.30;;;0.30;;
14817;SDS011;7500;57.698;11.986;2024-02-23T03:28:36;0.40;;;0.40;;
14817;SDS011;7500;57.698;11.986;2024-02-23T03:31:03;0.57;;;0.40;;
14817;SDS011;7500;57.698;11.986;2024-02-23T03:33:30;1.30;;;0.97;;
14817;SDS011;7500;57.698;11.986;2024-02-23T03:35:57;3.17;;;0.67;;
14817;SDS011;7500;57.698;11.986;2024-02-23T03:38:25;5.50;;;0.40;;
14817;SDS011;7500;57.698;11.986;2024-02-23T03:40:51;10.33;;;0.77;;
14817;SDS011;7500;57.698;11.986;2024-02-23T03:43:19;0.90;;;0.47;;
14817;SDS011;7500;57.698;11.986;2024-02-23T03:45:45;0.60;;;0.40;;
14817;SDS011;7500;57.698;11.986;2024-02-23T03:48:12;1.00;;;0.90;;
14817;SDS011;7500;57.698;11.986;2024-02-23T03:50:38;3.27;;;1.33;;
14817;SDS011;7500;57.698;11.986;2024-02-23T03:53:05;5.47;;;2.27;;
14817;SDS011;7500;57.698;11.986;2024-02-23T03:55:33;4.13;;;2.37;;
14817;SDS011;7500;57.698;11.986;2024-02-23T03:57:59;5.93;;;2.43;;
14817;SDS011;7500;57.698;11.986;2024-02-23T04:00:26;4.13;;;2.60;;
14817;SDS011;7500;57.698;11.986;2024-02-23T04:02:52;7.07;;;3.53;;
14817;SDS011;7500;57.698;11.986;2024-02-23T04:05:19;6.17;;;3.17;;
14817;SDS011;7500;57.698;11.986;2024-02-23T04:07:46;8.37;;;3.30;;
14817;SDS011;7500;57.698;11.986;2024-02-23T04:10:12;8.87;;;3.57;;
14817;SDS011;7500;57.698;11.986;2024-02-23T04:12:42;6.40;;;2.80;;
14817;SDS011;7500;57.698;11.986;2024-02-23T04:15:09;8.87;;;2.70;;
14817;SDS011;7500;57.698;11.986;2024-02-23T04:17:36;8.07;;;1.80;;
14817;SDS011;7500;57.698;11.986;2024-02-23T04:20:06;11.77;;;2.10;;
14817;SDS011;7500;57.698;11.986;2024-02-23T04:22:33;5.27;;;1.40;;
14817;SDS011;7500;57.698;11.986;2024-02-23T04:24:59;8.20;;;1.60;;
14817;SDS011;7500;57.698;11.986;2024-02-23T04:27:26;6.40;;;1.60;;
14817;SDS011;7500;57.698;11.986;2024-02-23T04:29:54;9.67;;;1.63;;
14817;SDS011;7500;57.698;11.986;2024-02-23T04:32:20;9.17;;;1.90;;
14817;SDS011;7500;57.698;11.986;2024-02-23T04:34:47;14.20;;;2.13;;
14817;SDS011;7500;57.698;11.986;2024-02-23T04:37:14;12.47;;;2.17;;
14817;SDS011;7500;57.698;11.986;2024-02-23T04:39:43;17.53;;;2.10;;
14817;SDS011;7500;57.698;11.986;2024-02-23T04:42:09;10.27;;;1.53;;
14817;SDS011;7500;57.698;11.986;2024-02-23T04:44:36;11.70;;;2.40;;
14817;SDS011;7500;57.698;11.986;2024-02-23T04:47:04;10.07;;;2.10;;
14817;SDS011;7500;57.698;11.986;2024-02-23T04:49:31;7.57;;;1.50;;
14817;SDS011;7500;57.698;11.986;2024-02-23T04:51:57;12.43;;;2.23;;
14817;SDS011;7500;57.698;11.986;2024-02-23T04:54:24;8.00;;;1.90;;
14817;SDS011;7500;57.698;11.986;2024-02-23T04:56:50;12.13;;;2.13;;
14817;SDS011;7500;57.698;11.986;2024-02-23T04:59:17;8.77;;;1.73;;
14817;SDS011;7500;57.698;11.986;2024-02-23T05:01:43;11.80;;;1.73;;
14817;SDS011;7500;57.698;11.986;2024-02-23T05:04:12;13.43;;;2.10;;
14817;SDS011;7500;57.698;11.986;2024-02-23T05:06:38;13.17;;;1.90;;
14817;SDS011;7500;57.698;11.986;2024-02-23T05:09:05;12.10;;;1.83;;
14817;SDS011;7500;57.698;11.986;2024-02-23T05:11:34;10.77;;;2.10;;
14817;SDS011;7500;57.698;11.986;2024-02-23T05:14:00;9.80;;;1.87;;
14817;SDS011;7500;57.698;11.986;2024-02-23T05:16:27;13.97;;;2.70;;
14817;SDS011;7500;57.698;11.986;2024-02-23T05:18:53;7.67;;;1.87;;
14817;SDS011;7500;57.698;11.986;2024-02-23T05:21:21;11.37;;;2.10;;
14817;SDS011;7500;57.698;11.986;2024-02-23T05:23:48;8.83;;;1.97;;
14817;SDS011;7500;57.698;11.986;2024-02-23T05:26:15;12.67;;;2.53;;
14817;SDS011;7500;57.698;11.986;2024-02-23T05:28:41;16.53;;;2.33;;
14817;SDS011;7500;57.698;11.986;2024-02-23T05:31:09;14.30;;;2.70;;
14817;SDS011;7500;57.698;11.986;2024-02-23T05:33:35;17.43;;;2.47;;
14817;SDS011;7500;57.698;11.986;2024-02-23T05:36:04;12.87;;;1.87;;
14817;SDS011;7500;57.698;11.986;2024-02-23T05:38:32;18.47;;;2.73;;
14817;SDS011;7500;57.698;11.986;2024-02-23T05:40:58;12.43;;;2.50;;
14817;SDS011;7500;57.698;11.986;2024-02-23T05:43:25;12.37;;;2.33;;
14817;SDS011;7500;57.698;11.986;2024-02-23T05:45:51;12.80;;;2.60;;
14817;SDS011;7500;57.698;11.986;2024-02-23T05:48:19;19.07;;;3.00;;
14817;SDS011;7500;57.698;11.986;2024-02-23T05:50:46;14.17;;;2.97;;
14817;SDS011;7500;57.698;11.986;2024-02-23T05:53:12;9.73;;;2.40;;
14817;SDS011;7500;57.698;11.986;2024-02-23T05:55:40;14.97;;;2.23;;
14817;SDS011;7500;57.698;11.986;2024-02-23T05:58:07;13.17;;;2.57;;
14817;SDS011;7500;57.698;11.986;2024-02-23T06:00:34;11.13;;;2.67;;
14817;SDS011;7500;57.698;11.986;2024-02-23T06:03:01;11.07;;;2.30;;
14817;SDS011;7500;57.698;11.986;2024-02-23T06:05:28;16.10;;;2.20;;
14817;SDS011;7500;57.698;11.986;2024-02-23T06:07:55;14.13;;;2.70;;
14817;SDS011;7500;57.698;11.986;2024-02-23T06:10:22;14.97;;;2.03;;
14817;SDS011;7500;57.698;11.986;2024-02-23T06:12:49;13.57;;;2.53;;
14817;SDS011;7500;57.698;11.986;2024-02-23T06:15:16;14.53;;;2.53;;
14817;SDS011;7500;57.698;11.986;2024-02-23T06:17:43;10.17;;;2.40;;
14817;SDS011;7500;57.698;11.986;2024-02-23T06:20:10;15.00;;;3.27;;
14817;SDS011;7500;57.698;11.986;2024-02-23T06:22:36;10.50;;;2.07;;
14817;SDS011;7500;57.698;11.986;2024-02-23T06:25:03;11.90;;;2.40;;
14817;SDS011;7500;57.698;11.986;2024-02-23T06:27:31;16.00;;;1.97;;
14817;SDS011;7500;57.698;11.986;2024-02-23T06:29:59;16.40;;;2.30;;
14817;SDS011;7500;57.698;11.986;2024-02-23T06:32:26;12.50;;;1.80;;
14817;SDS011;7500;57.698;11.986;2024-02-23T06:34:52;8.93;;;2.30;;
14817;SDS011;7500;57.698;11.986;2024-02-23T06:37:19;12.90;;;1.90;;
14817;SDS011;7500;57.698;11.986;2024-02-23T06:39:46;5.07;;;1.67;;
14817;SDS011;7500;57.698;11.986;2024-02-23T06:42:16;11.53;;;1.83;;
14817;SDS011;7500;57.698;11.986;2024-02-23T06:44:43;10.70;;;1.80;;
14817;SDS011;7500;57.698;11.986;2024-02-23T06:47:11;7.87;;;1.60;;
14817;SDS011;7500;57.698;11.986;2024-02-23T06:49:40;5.53;;;1.60;;
14817;SDS011;7500;57.698;11.986;2024-02-23T06:52:07;6.80;;;1.50;;
14817;SDS011;7500;57.698;11.986;2024-02-23T06:54:34;8.60;;;1.67;;
14817;SDS011;7500;57.698;11.986;2024-02-23T06:57:00;9.07;;;1.77;;
14817;SDS011;7500;57.698;11.986;2024-02-23T06:59:28;9.57;;;1.97;;
14817;SDS011;7500;57.698;11.986;2024-02-23T07:01:54;7.73;;;2.60;;
14817;SDS011;7500;57.698;11.986;2024-02-23T07:04:22;16.23;;;2.27;;
14817;SDS011;7500;57.698;11.986;2024-02-23T07:06:50;9.20;;;1.90;;
14817;SDS011;7500;57.698;11.986;2024-02-23T07:09:17;13.57;;;2.80;;
14817;SDS011;7500;57.698;11.986;2024-02-23T07:11:43;10.13;;;2.57;;
14817;SDS011;7500;57.698;11.986;2024-02-23T07:14:10;10.70;;;1.77;;
14817;SDS011;7500;57.698;11.986;2024-02-23T07:16:39;12.67;;;2.60;;
14817;SDS011;7500;57.698;11.986;2024-02-23T07:19:06;11.53;;;2.40;;
14817;SDS011;7500;57.698;11.986;2024-02-23T07:21:34;11.47;;;2.13;;
14817;SDS011;7500;57.698;11.986;2024-02-23T07:24:00;13.03;;;2.53;;
14817;SDS011;7500;57.698;11.986;2024-02-23T07:26:27;12.60;;;2.60;;
14817;SDS011;7500;57.698;11.986;2024-02-23T07:28:54;8.60;;;2.13;;
14817;SDS011;7500;57.698;11.986;2024-02-23T07:31:21;18.10;;;3.33;;
14817;SDS011;7500;57.698;11.986;2024-02-23T07:33:47;6.40;;;1.93;;
14817;SDS011;7500;57.698;11.986;2024-02-23T07:36:16;14.80;;;3.03;;
14817;SDS011;7500;57.698;11.986;2024-02-23T07:38:44;16.63;;;2.80;;
14817;SDS011;7500;57.698;11.986;2024-02-23T07:41:10;21.10;;;3.03;;
14817;SDS011;7500;57.698;11.986;2024-02-23T07:43:38;17.03;;;2.80;;
14817;SDS011;7500;57.698;11.986;2024-02-23T07:46:05;13.60;;;2.53;;
14817;SDS011;7500;57.698;11.986;2024-02-23T07:48:33;17.47;;;3.20;;
14817;SDS011;7500;57.698;11.986;2024-02-23T07:51:00;13.40;;;2.60;;
14817;SDS011;7500;57.698;11.986;2024-02-23T07:53:27;14.90;;;3.13;;
14817;SDS011;7500;57.698;11.986;2024-02-23T07:55:55;13.10;;;2.60;;
14817;SDS011;7500;57.698;11.986;2024-02-23T07:58:24;13.50;;;2.80;;
14817;SDS011;7500;57.698;11.986;2024-02-23T08:00:51;14.33;;;3.10;;
14817;SDS011;7500;57.698;11.986;2024-02-23T08:03:18;19.37;;;3.30;;
14817;SDS011;7500;57.698;11.986;2024-02-23T08:05:44;16.23;;;3.03;;
14817;SDS011;7500;57.698;11.986;2024-02-23T08:08:11;13.67;;;2.97;;
14817;SDS011;7500;57.698;11.986;2024-02-23T08:10:38;13.77;;;3.17;;
14817;SDS011;7500;57.698;11.986;2024-02-23T08:13:05;16.87;;;3.67;;
14817;SDS011;7500;57.698;11.986;2024-02-23T08:15:33;11.43;;;3.20;;
14817;SDS011;7500;57.698;11.986;2024-02-23T08:18:01;19.23;;;3.70;;
14817;SDS011;7500;57.698;11.986;2024-02-23T08:20:27;14.83;;;3.27;;
14817;SDS011;7500;57.698;11.986;2024-02-23T08:22:54;23.10;;;3.93;;
14817;SDS011;7500;57.698;11.986;2024-02-23T08:25:21;13.67;;;2.90;;
14817;SDS011;7500;57.698;11.986;2024-02-23T08:27:47;15.20;;;3.17;;
14817;SDS011;7500;57.698;11.986;2024-02-23T08:30:15;12.90;;;3.70;;
14817;SDS011;7500;57.698;11.986;2024-02-23T08:32:42;11.57;;;2.50;;
14817;SDS011;7500;57.698;11.986;2024-02-23T08:35:08;11.23;;;2.53;;
14817;SDS011;7500;57.698;11.986;2024-02-23T08:37:35;14.87;;;2.80;;
14817;SDS011;7500;57.698;11.986;2024-02-23T08:40:02;18.40;;;3.17;;
14817;SDS011;7500;57.698;11.986;2024-02-23T08:42:28;19.33;;;3.97;;
14817;SDS011;7500;57.698;11.986;2024-02-23T08:44:55;25.03;;;4.33;;
14817;SDS011;7500;57.698;11.986;2024-02-23T08:47:23;18.73;;;3.60;;
14817;SDS011;7500;57.698;11.986;2024-02-23T08:49:50;15.97;;;2.93;;
14817;SDS011;7500;57.698;11.986;2024-02-23T08:52:16;15.50;;;2.77;;
14817;SDS011;7500;57.698;11.986;2024-02-23T08:54:44;16.17;;;3.20;;
14817;SDS011;7500;57.698;11.986;2024-02-23T08:57:10;15.60;;;2.80;;
14817;SDS011;7500;57.698;11.986;2024-02-23T08:59:37;13.03;;;2.73;;
14817;SDS011;7500;57.698;11.986;2024-02-23T09:02:03;10.03;;;1.80;;
14817;SDS011;7500;57.698;11.986;2024-02-23T09:04:31;13.80;;;3.03;;
14817;SDS011;7500;57.698;11.986;2024-02-23T09:06:58;8.90;;;2.10;;
14817;SDS011;7500;57.698;11.986;2024-02-23T09:09:25;10.27;;;2.27;;
14817;SDS011;7500;57.698;11.986;2024-02-23T09:11:52;10.00;;;2.27;;
14817;SDS011;7500;57.698;11.986;2024-02-23T09:14:18;13.53;;;2.63;;
14817;SDS011;7500;57.698;11.986;2024-02-23T09:16:45;15.90;;;2.80;;
14817;SDS011;7500;57.698;11.986;2024-02-23T09:19:15;10.07;;;2.43;;
14817;SDS011;7500;57.698;11.986;2024-02-23T09:21:43;11.47;;;2.70;;
14817;SDS011;7500;57.698;11.986;2024-02-23T09:24:10;13.77;;;2.77;;
14817;SDS011;7500;57.698;11.986;2024-02-23T09:26:36;13.67;;;2.40;;
14817;SDS011;7500;57.698;11.986;2024-02-23T09:29:03;15.07;;;2.87;;
14817;SDS011;7500;57.698;11.986;2024-02-23T09:31:29;19.37;;;3.20;;
14817;SDS011;7500;57.698;11.986;2024-02-23T09:33:56;17.73;;;2.77;;
14817;SDS011;7500;57.698;11.986;2024-02-23T09:36:24;17.07;;;2.87;;
14817;SDS011;7500;57.698;11.986;2024-02-23T09:38:52;14.87;;;2.90;;
14817;SDS011;7500;57.698;11.986;2024-02-23T09:41:19;14.73;;;3.30;;
14817;SDS011;7500;57.698;11.986;2024-02-23T09:43:46;15.77;;;3.20;;
14817;SDS011;7500;57.698;11.986;2024-02-23T09:46:13;14.60;;;3.10;;
14817;SDS011;7500;57.698;11.986;2024-02-23T09:48:40;17.33;;;3.07;;
14817;SDS011;7500;57.698;11.986;2024-02-23T09:51:06;14.27;;;2.93;;
14817;SDS011;7500;57.698;11.986;2024-02-23T09:53:34;12.43;;;3.13;;
14817;SDS011;7500;57.698;11.986;2024-02-23T09:56:04;8.47;;;2.83;;
14817;SDS011;7500;57.698;11.986;2024-02-23T09:58:31;13.30;;;2.93;;
14817;SDS011;7500;57.698;11.986;2024-02-23T10:00:59;9.70;;;2.20;;
14817;SDS011;7500;57.698;11.986;2024-02-23T10:03:26;11.90;;;3.17;;
14817;SDS011;7500;57.698;11.986;2024-02-23T10:05:53;11.50;;;2.67;;
14817;SDS011;7500;57.698;11.986;2024-02-23T10:08:21;18.23;;;2.97;;
14817;SDS011;7500;57.698;11.986;2024-02-23T10:10:47;19.47;;;3.00;;
14817;SDS011;7500;57.698;11.986;2024-02-23T10:13:19;12.47;;;2.47;;
14817;SDS011;7500;57.698;11.986;2024-02-23T10:15:46;12.87;;;3.30;;
14817;SDS011;7500;57.698;11.986;2024-02-23T10:18:13;18.20;;;3.30;;
14817;SDS011;7500;57.698;11.986;2024-02-23T10:20:40;13.80;;;3.53;;
14817;SDS011;7500;57.698;11.986;2024-02-23T10:23:07;15.33;;;3.10;;
14817;SDS011;7500;57.698;11.986;2024-02-23T10:25:33;15.23;;;3.17;;
14817;SDS011;7500;57.698;11.986;2024-02-23T10:28:00;11.73;;;2.93;;
14817;SDS011;7500;57.698;11.986;2024-02-23T10:30:28;13.93;;;2.50;;
14817;SDS011;7500;57.698;11.986;2024-02-23T10:32:55;14.07;;;2.83;;
14817;SDS011;7500;57.698;11.986;2024-02-23T10:35:23;10.20;;;2.43;;
14817;SDS011;7500;57.698;11.986;2024-02-23T10:37:50;12.73;;;2.63;;
14817;SDS011;7500;57.698;11.986;2024-02-23T10:40:17;14.13;;;2.90;;
14817;SDS011;7500;57.698;11.986;2024-02-23T10:42:45;16.90;;;2.57;;
14817;SDS011;7500;57.698;11.986;2024-02-23T10:45:12;13.67;;;3.37;;
14817;SDS011;7500;57.698;11.986;2024-02-23T10:47:42;15.20;;;2.80;;
14817;SDS011;7500;57.698;11.986;2024-02-23T10:50:09;15.57;;;2.97;;
14817;SDS011;7500;57.698;11.986;2024-02-23T10:52:38;17.53;;;3.57;;
14817;SDS011;7500;57.698;11.986;2024-02-23T10:55:05;14.67;;;3.03;;
14817;SDS011;7500;57.698;11.986;2024-02-23T10:57:33;15.83;;;2.73;;
14817;SDS011;7500;57.698;11.986;2024-02-23T11:00:00;21.10;;;3.40;;
14817;SDS011;7500;57.698;11.986;2024-02-23T11:02:31;15.70;;;2.80;;
14817;SDS011;7500;57.698;11.986;2024-02-23T11:04:59;18.30;;;2.80;;
14817;SDS011;7500;57.698;11.986;2024-02-23T11:07:28;19.07;;;3.00;;
14817;SDS011;7500;57.698;11.986;2024-02-23T11:09:58;18.70;;;3.77;;
14817;SDS011;7500;57.698;11.986;2024-02-23T11:12:25;14.43;;;2.57;;
14817;SDS011;7500;57.698;11.986;2024-02-23T11:14:56;15.40;;;2.60;;
14817;SDS011;7500;57.698;11.986;2024-02-23T11:17:23;15.70;;;2.90;;
14817;SDS011;7500;57.698;11.986;2024-02-23T11:19:53;13.17;;;2.37;;
14817;SDS011;7500;57.698;11.986;2024-02-23T11:22:24;14.27;;;3.30;;
14817;SDS011;7500;57.698;11.986;2024-02-23T11:24:52;17.97;;;3.20;;
14817;SDS011;7500;57.698;11.986;2024-02-23T11:27:19;15.43;;;2.80;;
14817;SDS011;7500;57.698;11.986;2024-02-23T11:29:46;16.53;;;3.17;;
14817;SDS011;7500;57.698;11.986;2024-02-23T11:32:14;11.33;;;2.43;;
14817;SDS011;7500;57.698;11.986;2024-02-23T11:34:41;13.50;;;2.80;;
14817;SDS011;7500;57.698;11.986;2024-02-23T11:37:09;13.60;;;2.77;;
14817;SDS011;7500;57.698;11.986;2024-02-23T11:39:38;17.70;;;3.00;;
14817;SDS011;7500;57.698;11.986;2024-02-23T11:42:05;13.63;;;3.00;;
14817;SDS011;7500;57.698;11.986;2024-02-23T11:44:32;14.27;;;2.97;;
14817;SDS011;7500;57.698;11.986;2024-02-23T11:46:59;10.97;;;2.90;;
14817;SDS011;7500;57.698;11.986;2024-02-23T11:49:27;16.10;;;3.23;;
14817;SDS011;7500;57.698;11.986;2024-02-23T11:51:53;11.00;;;2.87;;
14817;SDS011;7500;57.698;11.986;2024-02-23T11:54:20;13.60;;;2.87;;
14817;SDS011;7500;57.698;11.986;2024-02-23T11:56:48;12.37;;;3.37;;
14817;SDS011;7500;57.698;11.986;2024-02-23T11:59:17;12.87;;;2.90;;
14817;SDS011;7500;57.698;11.986;2024-02-23T12:01:45;13.40;;;3.27;;
14817;SDS011;7500;57.698;11.986;2024-02-23T12:04:11;16.47;;;3.20;;
14817;SDS011;7500;57.698;11.986;2024-02-23T12:06:38;12.90;;;2.80;;
14817;SDS011;7500;57.698;11.986;2024-02-23T12:09:05;15.40;;;2.50;;
14817;SDS011;7500;57.698;11.986;2024-02-23T12:11:32;12.07;;;2.70;;
14817;SDS011;7500;57.698;11.986;2024-02-23T12:14:01;10.87;;;2.60;;
14817;SDS011;7500;57.698;11.986;2024-02-23T12:16:32;12.60;;;2.80;;
14817;SDS011;7500;57.698;11.986;2024-02-23T12:18:59;11.97;;;2.37;;
14817;SDS011;7500;57.698;11.986;2024-02-23T12:21:27;13.93;;;2.83;;
14817;SDS011;7500;57.698;11.986;2024-02-23T12:23:53;12.23;;;2.60;;
14817;SDS011;7500;57.698;11.986;2024-02-23T12:26:20;14.17;;;2.87;;
14817;SDS011;7500;57.698;11.986;2024-02-23T12:28:47;12.97;;;2.90;;
14817;SDS011;7500;57.698;11.986;2024-02-23T12:31:15;10.03;;;2.53;;
14817;SDS011;7500;57.698;11.986;2024-02-23T12:33:41;8.93;;;2.30;;
14817;SDS011;7500;57.698;11.986;2024-02-23T12:36:13;13.67;;;2.87;;
14817;SDS011;7500;57.698;11.986;2024-02-23T12:38:39;13.23;;;2.50;;
14817;SDS011;7500;57.698;11.986;2024-02-23T12:41:06;12.03;;;2.23;;
14817;SDS011;7500;57.698;11.986;2024-02-23T12:43:33;13.63;;;2.60;;
14817;SDS011;7500;57.698;11.986;2024-02-23T12:45:59;10.90;;;2.27;;
14817;SDS011;7500;57.698;11.986;2024-02-23T12:48:29;11.60;;;2.20;;
14817;SDS011;7500;57.698;11.986;2024-02-23T12:50:56;14.83;;;2.77;;
14817;SDS011;7500;57.698;11.986;2024-02-23T12:53:32;12.13;;;2.60;;
14817;SDS011;7500;57.698;11.986;2024-02-23T12:56:00;13.73;;;2.50;;
14817;SDS011;7500;57.698;11.986;2024-02-23T12:58:26;11.07;;;2.40;;
14817;SDS011;7500;57.698;11.986;2024-02-23T13:00:52;13.23;;;1.93;;
14817;SDS011;7500;57.698;11.986;2024-02-23T13:03:19;12.00;;;1.90;;
14817;SDS011;7500;57.698;11.986;2024-02-23T13:05:47;8.50;;;1.50;;
14817;SDS011;7500;57.698;11.986;2024-02-23T13:08:14;8.23;;;1.80;;
14817;SDS011;7500;57.698;11.986;2024-02-23T13:10:40;6.93;;;1.90;;
14817;SDS011;7500;57.698;11.986;2024-02-23T13:13:07;7.67;;;1.40;;
14817;SDS011;7500;57.698;11.986;2024-02-23T13:15:33;7.23;;;1.63;;
14817;SDS011;7500;57.698;11.986;2024-02-23T13:18:02;9.53;;;1.83;;
14817;SDS011;7500;57.698;11.986;2024-02-23T13:20:28;13.80;;;2.33;;
14817;SDS011;7500;57.698;11.986;2024-02-23T13:22:56;6.03;;;1.63;;
14817;SDS011;7500;57.698;11.986;2024-02-23T13:25:23;6.87;;;1.50;;
14817;SDS011;7500;57.698;11.986;2024-02-23T13:27:49;5.10;;;1.57;;
14817;SDS011;7500;57.698;11.986;2024-02-23T13:30:16;11.53;;;1.77;;
14817;SDS011;7500;57.698;11.986;2024-02-23T13:32:42;4.77;;;1.40;;
14817;SDS011;7500;57.698;11.986;2024-02-23T13:35:09;9.67;;;1.90;;
14817;SDS011;7500;57.698;11.986;2024-02-23T13:37:35;11.37;;;1.90;;
14817;SDS011;7500;57.698;11.986;2024-02-23T13:40:04;12.00;;;1.93;;
14817;SDS011;7500;57.698;11.986;2024-02-23T13:42:30;8.77;;;2.20;;
14817;SDS011;7500;57.698;11.986;2024-02-23T13:44:57;8.80;;;1.90;;
14817;SDS011;7500;57.698;11.986;2024-02-23T13:47:24;7.83;;;2.10;;
14817;SDS011;7500;57.698;11.986;2024-02-23T13:49:50;7.30;;;1.70;;
14817;SDS011;7500;57.698;11.986;2024-02-23T13:52:17;12.97;;;1.90;;
14817;SDS011;7500;57.698;11.986;2024-02-23T13:54:43;9.53;;;1.40;;
14817;SDS011;7500;57.698;11.986;2024-02-23T13:57:11;10.97;;;2.00;;
14817;SDS011;7500;57.698;11.986;2024-02-23T13:59:38;12.17;;;1.97;;
14817;SDS011;7500;57.698;11.986;2024-02-23T14:02:04;15.07;;;2.30;;
14817;SDS011;7500;57.698;11.986;2024-02-23T14:04:31;9.37;;;2.20;;
14817;SDS011;7500;57.698;11.986;2024-02-23T14:06:58;11.03;;;2.73;;
14817;SDS011;7500;57.698;11.986;2024-02-23T14:09:24;7.67;;;1.57;;
14817;SDS011;7500;57.698;11.986;2024-02-23T14:11:51;9.93;;;2.33;;
14817;SDS011;7500;57.698;11.986;2024-02-23T14:14:19;11.43;;;2.03;;
14817;SDS011;7500;57.698;11.986;2024-02-23T14:16:46;8.52;;;2.00;;
14817;SDS011;7500;57.698;11.986;2024-02-23T14:19:13;11.33;;;2.10;;
14817;SDS011;7500;57.698;11.986;2024-02-23T14:21:39;9.47;;;2.03;;
14817;SDS011;7500;57.698;11.986;2024-02-23T14:24:06;10.27;;;1.60;;
14817;SDS011;7500;57.698;11.986;2024-02-23T14:26:32;10.97;;;1.97;;
14817;SDS011;7500;57.698;11.986;2024-02-23T14:28:59;10.80;;;2.33;;
14817;SDS011;7500;57.698;11.986;2024-02-23T14:31:28;9.23;;;2.17;;
14817;SDS011;7500;57.698;11.986;2024-02-23T14:33:55;11.13;;;2.40;;
14817;SDS011;7500;57.698;11.986;2024-02-23T14:36:21;6.50;;;1.93;;
14817;SDS011;7500;57.698;11.986;2024-02-23T14:38:49;9.13;;;1.90;;